EST,Max TemperatureF,Mean TemperatureF,Min TemperatureF,Max Dew PointF,MeanDew PointF,Min DewpointF,Max Humidity, Mean Humidity, Min Humidity, Max Sea Level PressureIn, Mean Sea Level PressureIn, Min Sea Level PressureIn, Max VisibilityMiles, Mean VisibilityMiles, Min VisibilityMiles, Max Wind SpeedMPH, Mean Wind SpeedMPH, Max Gust SpeedMPH,PrecipitationIn, CloudCover, Events, WindDirDegrees
2013-2-1,25,22,19,16,14,9,84,70,55,30.19,29.94,29.68,10,2,0,28,14,36,0.30,8,Fog-Snow,280
2013-2-2,21,17,12,16,10,5,84,70,56,30.19,30.10,30.00,10,7,1,16,7,21,0.10,7,Snow,195
2013-2-3,27,14,1,17,9,-2,88,72,55,29.98,29.88,29.79,10,9,5,14,4,18,T,5,Snow,119
2013-2-4,21,16,11,14,12,8,92,77,62,29.95,29.90,29.82,10,4,0,22,9,29,0.11,8,Snow,281
2013-2-5,24,15,5,13,9,4,88,69,49,30.01,29.93,29.87,10,8,2,10,3,13,T,7,Snow,56
2013-2-6,28,19,9,23,15,4,75,61,46,30.40,30.09,29.88,10,6,1,26,11,35,T,6,Snow,270
2013-2-7,28,17,5,10,7,1,83,63,42,30.50,30.38,30.20,10,10,10,18,9,23,0.00,7,,77
2013-2-8,30,27,23,25,21,11,92,74,55,30.17,29.92,29.80,10,3,0,22,13,29,0.52,8,Fog-Snow,70
2013-2-9,23,15,7,16,9,4,84,73,62,30.42,30.23,29.95,10,6,1,22,11,30,0.08,6,Snow,306
2013-2-10,33,19,5,15,10,2,84,64,43,30.47,30.33,30.08,10,10,9,15,7,20,0.00,6,,80
2013-2-11,47,37,27,36,28,11,82,63,44,30.07,29.77,29.60,10,9,6,24,12,30,0.10,8,Rain-Snow,202
2013-2-12,37,35,32,28,26,22,82,71,59,29.95,29.82,29.70,10,6,1,29,18,39,T,8,Snow,253
2013-2-13,40,32,23,24,20,17,75,60,44,29.90,29.81,29.73,10,10,9,14,4,15,T,7,Snow,247
2013-2-14,40,32,24,32,24,18,82,66,50,29.94,29.87,29.79,10,9,6,16,6,21,0.03,8,Rain-Snow,217
2013-2-15,40,34,27,31,25,19,70,60,50,30.03,29.91,29.78,10,10,9,23,11,30,T,7,Rain-Snow,252
2013-2-16,30,24,18,20,14,6,81,60,39,30.05,30.01,29.91,10,8,2,14,7,17,0.02,7,Snow,311
2013-2-17,19,16,12,9,7,1,80,67,54,30.11,29.96,29.88,10,5,0,25,12,31,0.03,7,Snow,296
2013-2-18,28,20,12,10,7,3,76,61,46,30.29,30.20,30.04,10,8,2,17,7,23,0.01,6,Snow,275
2013-2-19,42,31,20,32,21,9,82,63,44,30.02,29.74,29.59,10,9,4,24,11,31,0.12,7,Rain-Snow,133
2013-2-20,29,26,22,19,14,10,81,66,50,29.98,29.85,29.75,10,7,2,33,21,41,T,8,Snow,254
2013-2-21,22,18,14,16,11,6,84,76,67,30.42,30.17,29.96,10,3,1,26,12,31,0.04,8,Snow,282
2013-2-22,37,26,15,27,19,10,88,72,56,30.42,30.29,30.09,10,10,2,21,8,25,T,8,Snow,102
2013-2-23,37,36,34,34,30,23,96,76,56,30.08,29.95,29.87,10,8,2,14,4,18,0.09,8,Rain-Snow,77
2013-2-24,34,32,29,27,26,22,85,73,61,30.01,29.91,29.85,10,5,0,16,8,20,0.09,8,Fog-Rain-Snow,259
2013-2-25,38,31,24,29,26,20,85,70,54,30.25,30.15,30.01,10,8,3,15,7,17,T,7,Snow,278
2013-2-26,44,32,19,28,23,16,91,70,49,30.26,30.13,29.91,10,9,6,21,10,26,0.11,5,Rain,91
2013-2-27,39,36,33,34,31,28,92,81,70,29.92,29.68,29.55,10,7,1,28,12,36,0.90,8,Rain-Snow,89
2013-2-28,40,37,34,34,31,30,96,83,70,29.67,29.59,29.54,10,9,2,14,5,18,0.06,8,Rain-Snow,247